Home   Weather   Germany   Mülheim / Ruhr   Past weeks
Flag for Germany

Past Weather in Mülheim / Ruhr, North Rhine-Westphalia, Germany — Yesterday and Last 2 Weeks

Currently: 48 °F. Passing clouds. (Weather station: Duesseldorf, Germany). See more current weather

Past Weather in Mülheim / Ruhr — Graph

°F

Mülheim / Ruhr Temperature Yesterday

Maximum temperature yesterday: 68 °F (at 4:50 pm)
Minimum temperature yesterday: 39 °F (at 12:50 am)
Average temperature yesterday: 53 °F

High & Low Weather Summary for the Past Weeks

 TemperatureHumidityPressure
High72 °F (Apr 9, 3:20 pm)100% (Mar 31, 4:50 am)30.39 "Hg (Mar 31, 4:50 am)
Low30 °F (Apr 1, 7:20 am)24% (Apr 7, 5:50 pm)29.74 "Hg (Apr 11, 3:20 pm)
Average49 °F66%30.13 "Hg
* Reported Mar 28 8:20 am — Apr 12 9:50 am, Mülheim / Ruhr. Weather by CustomWeather, © 2026

Note: Actual official high and low records may vary slightly from our data, if they occured in-between our weather recording intervals... More about our weather records

Mülheim / Ruhr Weather History for the Previous 24 Hours

Scroll right to see more
 ConditionsComfort  
Time TempWeatherWind HumidityBarometerVisibility
9:50 am
Sun, Apr 12
48 °FSunny.7 mph66%30.04 "Hg10 mi
9:20 am46 °FPassing clouds.7 mph71%30.04 "HgN/A
8:50 am46 °FSunny.7 mph71%30.04 "Hg10 mi
8:20 am46 °FPassing clouds.5 mph71%30.01 "HgN/A
7:50 am43 °FSunny.7 mph81%30.01 "Hg10 mi
7:20 am41 °FSunny.9 mph81%30.01 "Hg10 mi
6:50 am41 °FSunny.6 mph81%30.01 "Hg10 mi
6:20 am41 °FClear.8 mph81%30.01 "Hg10 mi
5:50 am41 °FClear.8 mph81%30.01 "Hg10 mi
5:20 am41 °FClear.6 mph87%29.98 "Hg10 mi
4:50 am43 °FClear.7 mph81%29.98 "Hg10 mi
4:20 am43 °FClear.7 mph81%29.98 "Hg10 mi
3:50 am45 °FClear.7 mph81%29.98 "Hg10 mi
3:20 am45 °FClear.7 mph87%29.98 "Hg10 mi
2:50 am46 °FClear.7 mph87%29.95 "Hg10 mi
2:20 am46 °FClear.7 mph93%29.95 "Hg10 mi
1:50 am48 °FClear.6 mph82%29.95 "Hg10 mi
1:20 am46 °FClear.5 mph93%29.95 "Hg10 mi
12:50 am46 °FPassing clouds.5 mph93%29.95 "HgN/A
12:20 am46 °FClear.5 mph93%29.92 "Hg10 mi
11:50 pm
Sat, Apr 11
46 °FClear.5 mph87%29.92 "Hg10 mi
11:20 pm46 °FScattered showers. Overcast.2 mph87%29.92 "HgN/A
10:50 pm46 °FRain showers. Passing clouds.2 mph87%29.92 "HgN/A
10:20 pm46 °FLight rain. Passing clouds.6 mph87%29.92 "HgN/A
9:50 pm46 °FLight rain. Mostly cloudy.9 mph82%29.89 "HgN/A
9:20 pm50 °FRain showers. Passing clouds.18 mph88%29.86 "HgN/A
8:50 pm54 °FRain showers. Fog.21 mph94%29.83 "Hg3 mi
8:20 pm57 °FRain showers. Broken clouds.8 mph88%29.77 "HgN/A
7:50 pm57 °FRain showers. Passing clouds.9 mph88%29.77 "HgN/A
7:20 pm61 °FRain showers. Passing clouds.12 mph72%29.77 "HgN/A
6:50 pm63 °FRain showers. Passing clouds.15 mph64%29.77 "HgN/A
6:20 pm66 °FSunny.17 mph46%29.74 "Hg10 mi
5:50 pm66 °FSunny.18 mph46%29.74 "Hg10 mi
5:20 pm66 °FPassing clouds.20 mph43%29.74 "HgN/A
4:50 pm68 °FSunny.21 mph38%29.74 "Hg10 mi
4:20 pm66 °FSunny.18 mph40%29.74 "Hg10 mi
3:50 pm66 °FPassing clouds.17 mph37%29.74 "HgN/A
3:20 pm66 °FSunny.20 mph43%29.74 "Hg10 mi
2:50 pm66 °FSunny.17 mph40%29.77 "Hg10 mi
2:20 pm66 °FPassing clouds.20 mph40%29.77 "HgN/A
1:50 pm64 °FPassing clouds.18 mph40%29.77 "HgN/A
1:20 pm64 °FSunny.20 mph40%29.80 "Hg10 mi
12:50 pm63 °FPassing clouds.16 mph39%29.80 "HgN/A
12:20 pm63 °FSunny.18 mph42%29.80 "Hg10 mi
11:50 am61 °FSunny.18 mph45%29.83 "Hg10 mi
11:20 am59 °FSunny.18 mph48%29.83 "Hg10 mi
Weather by CustomWeather, © 2026

See weather overview